Time;durP1;ratioP1;P1;durP2;ratioP2;P2;SDS_P1;SDS_P2;PMS_P1;PMS_P2;Temp;Humidity;BMP_temperature;BMP_pressure;BME280_temperature;BME280_humidity;BME280_pressure;Samples;Min_cycle;Max_cycle;Signal;HPM_P1;HPM_P2
2022/04/05 00:01:25;;;;;;;10.65;2.10;;;;;;;6.23;100.00;99946.31;5070922;28;20044;-84
2022/04/05 00:03:51;;;;;;;7.47;1.58;;;;;;;6.23;100.00;99955.00;5070851;28;20045;-84
2022/04/05 00:06:18;;;;;;;6.72;1.60;;;;;;;6.58;100.00;99955.56;5060128;28;20088;-84
2022/04/05 00:08:45;;;;;;;7.57;1.70;;;;;;;6.72;100.00;99942.09;5050966;28;20059;-84
2022/04/05 00:11:12;;;;;;;10.25;1.60;;;;;;;6.57;100.00;99934.78;5051406;28;20111;-84
2022/04/05 00:13:38;;;;;;;7.28;1.85;;;;;;;6.56;100.00;99936.56;5063890;28;20056;-83
2022/04/05 00:16:05;;;;;;;19.63;3.35;;;;;;;6.44;100.00;99934.38;5071604;28;20051;-83
2022/04/05 00:18:32;;;;;;;7.53;1.40;;;;;;;6.58;100.00;99952.13;5072628;28;20052;-84
2022/04/05 00:20:59;;;;;;;8.55;1.52;;;;;;;6.27;100.00;99945.34;5072323;28;20051;-85
2022/04/05 00:23:26;;;;;;;12.80;1.73;;;;;;;5.79;100.00;99874.06;5071057;28;20045;-84
2022/04/05 00:25:52;;;;;;;10.40;1.80;;;;;;;6.27;100.00;99942.75;5072506;28;20055;-85
2022/04/05 00:28:19;;;;;;;7.47;1.50;;;;;;;6.43;100.00;99917.94;5072340;28;20056;-84
2022/04/05 00:30:46;;;;;;;8.93;1.95;;;;;;;6.64;100.00;99950.16;5071726;28;20052;-84
2022/04/05 00:33:13;;;;;;;5.80;1.50;;;;;;;6.24;100.00;99930.69;5070009;28;20466;-84
2022/04/05 00:35:40;;;;;;;13.05;1.90;;;;;;;6.37;100.00;99945.88;5063827;28;20055;-84
2022/04/05 00:38:08;;;;;;;9.70;1.75;;;;;;;6.15;100.00;99958.72;5069333;28;20048;-84
2022/04/05 00:40:37;;;;;;;4.32;1.60;;;;;;;6.35;100.00;99951.13;5051927;28;20151;-84
2022/04/05 00:43:05;;;;;;;9.57;1.70;;;;;;;6.65;100.00;99956.22;5058561;28;20056;-84
2022/04/05 00:45:33;;;;;;;14.13;2.10;;;;;;;6.30;100.00;99949.56;5071454;28;20135;-84
2022/04/05 00:48:01;;;;;;;8.65;1.50;;;;;;;6.47;100.00;99932.50;5070492;28;20123;-84
2022/04/05 00:50:27;;;;;;;7.97;2.10;;;;;;;5.95;100.00;99939.38;5071841;28;20056;-83
2022/04/05 00:52:54;;;;;;;16.15;3.58;;;;;;;6.06;100.00;99934.72;5070582;28;20140;-84
2022/04/05 00:55:22;;;;;;;7.45;1.90;;;;;;;6.15;100.00;99940.53;5071099;28;20061;-84
2022/04/05 00:57:50;;;;;;;5.85;1.77;;;;;;;6.19;100.00;99932.56;5072131;28;20144;-84
2022/04/05 01:00:17;;;;;;;8.05;1.80;;;;;;;6.35;100.00;99914.72;5070829;28;20467;-84
2022/04/05 01:02:48;;;;;;;9.73;2.20;;;;;;;6.24;100.00;99942.84;5066172;28;20041;-84
2022/04/05 01:05:17;;;;;;;8.45;2.13;;;;;;;6.28;100.00;99905.44;5053849;28;20098;-84
2022/04/05 01:07:46;;;;;;;11.60;3.08;;;;;;;5.97;100.00;99908.19;5059004;28;20055;-84
2022/04/05 01:10:13;;;;;;;12.70;2.65;;;;;;;5.96;100.00;99894.31;5051796;28;20135;-84
2022/04/05 01:12:41;;;;;;;7.45;2.35;;;;;;;6.54;100.00;99927.13;5055107;28;20043;-84
2022/04/05 01:15:09;;;;;;;5.82;2.03;;;;;;;6.83;100.00;99932.19;5071758;28;20048;-84
2022/04/05 01:17:36;;;;;;;6.10;1.70;;;;;;;6.76;100.00;99925.47;5067105;28;20059;-84
2022/04/05 01:20:03;;;;;;;7.30;1.73;;;;;;;6.58;100.00;99933.91;5050214;28;20148;-84
2022/04/05 01:22:30;;;;;;;12.23;2.53;;;;;;;6.19;100.00;99916.13;5052822;28;20040;-84
2022/04/05 01:24:57;;;;;;;6.13;1.45;;;;;;;6.60;100.00;99909.53;5070610;28;20145;-84
2022/04/05 01:27:27;;;;;;;8.65;3.05;;;;;;;6.12;100.00;99893.84;5070322;28;20048;-84
2022/04/05 01:29:55;;;;;;;10.88;2.78;;;;;;;6.41;100.00;99921.47;5070214;28;20053;-84
2022/04/05 01:32:22;;;;;;;5.18;1.60;;;;;;;6.42;100.00;99920.56;5070837;28;20037;-84
2022/04/05 01:34:49;;;;;;;12.95;3.03;;;;;;;6.27;100.00;99927.97;5070551;28;20044;-84
2022/04/05 01:37:16;;;;;;;6.85;1.63;;;;;;;6.26;100.00;99915.03;5060681;28;20053;-84
2022/04/05 01:39:43;;;;;;;5.88;2.20;;;;;;;6.03;100.00;99856.84;5050286;28;20063;-84
2022/04/05 01:42:13;;;;;;;12.45;2.17;;;;;;;6.29;100.00;99885.50;5052178;28;20145;-84
2022/04/05 01:44:42;;;;;;;10.95;4.38;;;;;;;6.39;100.00;99898.13;5069932;28;20143;-84
2022/04/05 01:47:12;;;;;;;11.60;2.03;;;;;;;6.49;100.00;99911.66;5061651;28;20055;-84
2022/04/05 01:49:40;;;;;;;7.90;2.00;;;;;;;6.34;100.00;99918.25;5071694;28;20071;-84
2022/04/05 01:52:09;;;;;;;6.90;1.63;;;;;;;6.16;100.00;99921.44;5072358;28;20052;-83
2022/04/05 01:54:37;;;;;;;6.40;2.00;;;;;;;6.52;100.00;99901.16;5073762;28;20135;-83
2022/04/05 01:57:05;;;;;;;11.68;1.95;;;;;;;6.81;100.00;99914.91;5059787;28;20049;-84
2022/04/05 01:59:34;;;;;;;7.78;1.65;;;;;;;6.17;100.00;99902.34;5053438;28;20055;-84
2022/04/05 02:02:10;;;;;;;10.90;2.03;;;;;;;6.15;100.00;99889.41;5053450;28;20059;-84
2022/04/05 02:04:37;;;;;;;6.68;1.40;;;;;;;6.54;100.00;99878.56;5074032;28;20136;-83
2022/04/05 02:07:13;;;;;;;7.55;1.75;;;;;;;6.56;100.00;99902.75;5066105;28;20060;-84
2022/04/05 02:09:41;;;;;;;6.97;1.77;;;;;;;6.36;100.00;99874.84;5053682;28;20064;-83
2022/04/05 02:12:09;;;;;;;7.38;1.80;;;;;;;6.50;100.00;99884.75;5061511;28;20149;-84
2022/04/05 02:14:39;;;;;;;9.15;2.00;;;;;;;6.78;100.00;99884.66;5072372;28;20078;-84
2022/04/05 02:17:07;;;;;;;6.22;1.73;;;;;;;6.81;100.00;99886.28;5073793;28;20049;-84
2022/04/05 02:19:35;;;;;;;6.18;1.40;;;;;;;6.88;100.00;99894.72;5073139;28;20060;-84
2022/04/05 02:22:03;;;;;;;5.10;1.50;;;;;;;6.83;100.00;99892.28;5072906;28;20563;-84
2022/04/05 02:24:30;;;;;;;9.50;1.48;;;;;;;7.00;100.00;99889.09;5072239;28;20040;-84
2022/04/05 02:26:57;;;;;;;11.02;2.35;;;;;;;6.95;100.00;99884.03;5072708;28;20052;-84
2022/04/05 02:29:24;;;;;;;5.97;1.50;;;;;;;6.88;100.00;99876.50;5072865;28;20059;-84
2022/04/05 02:31:50;;;;;;;9.23;1.52;;;;;;;6.90;100.00;99893.75;5072927;28;20053;-83
2022/04/05 02:34:17;;;;;;;6.97;1.42;;;;;;;6.86;100.00;99875.72;5068698;28;20051;-84
2022/04/05 02:36:44;;;;;;;5.90;1.42;;;;;;;6.63;100.00;99849.59;5052580;28;20049;-83
2022/04/05 02:39:11;;;;;;;7.28;1.75;;;;;;;6.94;100.00;99881.47;5054290;28;20044;-84
2022/04/05 02:41:38;;;;;;;9.00;1.95;;;;;;;6.55;100.00;99833.44;5073293;28;20474;-83
2022/04/05 02:44:06;;;;;;;10.15;2.05;;;;;;;6.80;100.00;99882.84;5072348;28;20044;-84
2022/04/05 02:46:33;;;;;;;7.53;1.83;;;;;;;7.12;100.00;99885.16;5074070;28;20072;-82
2022/04/05 02:49:00;;;;;;;5.03;1.55;;;;;;;6.67;100.00;99862.50;5073011;28;20060;-84
2022/04/05 02:51:27;;;;;;;5.65;1.50;;;;;;;6.52;100.00;99825.75;5073346;28;20053;-85
2022/04/05 02:53:54;;;;;;;7.65;2.42;;;;;;;6.97;100.00;99858.78;5071824;28;20067;-84
2022/04/05 02:56:20;;;;;;;8.13;1.50;;;;;;;6.92;100.00;99876.31;5072710;28;20056;-84
2022/04/05 02:58:48;;;;;;;4.97;1.40;;;;;;;6.95;100.00;99886.63;5072602;28;20054;-84
2022/04/05 03:01:15;;;;;;;5.65;1.40;;;;;;;6.89;100.00;99862.56;5071702;28;20143;-84
2022/04/05 03:03:42;;;;;;;4.63;2.03;;;;;;;6.97;100.00;99853.59;5072218;28;20078;-82
2022/04/05 03:06:10;;;;;;;6.85;1.42;;;;;;;6.97;100.00;99848.38;5073590;28;20056;-84
2022/04/05 03:08:38;;;;;;;9.70;1.45;;;;;;;6.82;100.00;99817.75;5064816;28;20487;-84
2022/04/05 03:11:05;;;;;;;6.40;1.88;;;;;;;6.92;100.00;99839.88;5053080;28;20048;-83
2022/04/05 03:13:32;;;;;;;6.20;1.77;;;;;;;7.05;100.00;99858.53;5070657;28;20149;-83
2022/04/05 03:15:59;;;;;;;6.07;1.52;;;;;;;6.93;100.00;99828.59;5073835;28;20063;-83
2022/04/05 03:18:27;;;;;;;5.22;1.52;;;;;;;6.69;100.00;99843.31;5072627;28;20087;-84
2022/04/05 03:20:53;;;;;;;6.05;1.40;;;;;;;6.79;100.00;99854.28;5072878;28;20045;-82
2022/04/05 03:23:21;;;;;;;6.30;1.30;;;;;;;6.97;100.00;99869.19;5071151;28;20048;-83
2022/04/05 03:25:49;;;;;;;7.05;1.48;;;;;;;6.95;100.00;99845.00;5072110;28;20049;-84
2022/04/05 03:28:18;;;;;;;8.05;1.90;;;;;;;7.17;100.00;99849.41;5071675;28;20049;-83
2022/04/05 03:30:47;;;;;;;6.63;1.40;;;;;;;6.86;100.00;99847.09;5071608;28;20048;-84
2022/04/05 03:33:15;;;;;;;5.65;1.50;;;;;;;6.91;100.00;99866.00;5067330;28;20045;-84
2022/04/05 03:35:42;;;;;;;6.13;1.40;;;;;;;7.07;100.00;99858.47;5052119;28;20395;-84
2022/04/05 03:38:09;;;;;;;5.80;2.13;;;;;;;6.90;100.00;99857.31;5051696;28;20056;-84
2022/04/05 03:40:36;;;;;;;7.10;1.38;;;;;;;6.60;100.00;99815.91;5052478;28;20057;-85
2022/04/05 03:43:03;;;;;;;5.82;1.55;;;;;;;6.78;100.00;99844.75;5070153;28;20048;-84
2022/04/05 03:45:30;;;;;;;6.97;1.60;;;;;;;6.60;100.00;99817.66;5072725;28;20049;-84
2022/04/05 03:47:57;;;;;;;4.28;1.60;;;;;;;6.34;100.00;99770.03;5071682;28;20513;-84
2022/04/05 03:50:24;;;;;;;3.85;1.35;;;;;;;6.55;100.00;99807.44;5071448;28;20127;-84
2022/04/05 03:52:51;;;;;;;7.43;1.67;;;;;;;6.72;100.00;99814.63;5070309;28;20058;-84
2022/04/05 03:55:18;;;;;;;5.53;1.58;;;;;;;6.66;100.00;99799.25;5072681;28;20367;-83
2022/04/05 03:57:45;;;;;;;6.75;2.03;;;;;;;6.61;100.00;99799.41;5072438;28;20053;-83
2022/04/05 04:00:12;;;;;;;6.72;1.98;;;;;;;5.95;100.00;99775.69;5072481;28;20044;-84
2022/04/05 04:02:38;;;;;;;11.98;1.60;;;;;;;6.47;100.00;99796.44;5071386;28;20048;-83
2022/04/05 04:05:06;;;;;;;6.55;1.90;;;;;;;6.93;100.00;99810.38;5071522;28;20080;-84
2022/04/05 04:07:40;;;;;;;4.75;1.25;;;;;;;6.64;100.00;99808.84;5050694;28;20505;-83
2022/04/05 04:10:08;;;;;;;7.75;1.55;;;;;;;6.80;100.00;99823.00;5052523;28;20123;-83
2022/04/05 04:12:35;;;;;;;6.72;1.88;;;;;;;6.56;100.00;99758.84;5054732;28;20398;-83
2022/04/05 04:15:02;;;;;;;4.82;1.20;;;;;;;6.94;100.00;99806.88;5071669;28;20048;-83
2022/04/05 04:17:29;;;;;;;5.55;1.60;;;;;;;7.02;100.00;99798.78;5071191;28;20524;-83
2022/04/05 04:19:56;;;;;;;3.58;1.30;;;;;;;6.78;100.00;99779.72;5071333;28;20055;-83
2022/04/05 04:22:23;;;;;;;4.53;1.20;;;;;;;7.08;100.00;99813.31;5069510;28;20094;-83
2022/04/05 04:24:49;;;;;;;4.43;1.38;;;;;;;6.78;100.00;99804.00;5072061;28;20049;-83
2022/04/05 04:27:16;;;;;;;5.68;1.65;;;;;;;6.80;100.00;99804.78;5072710;28;20402;-83
2022/04/05 04:29:43;;;;;;;5.70;1.52;;;;;;;6.82;100.00;99786.53;5070985;28;20643;-84
2022/04/05 04:32:10;;;;;;;6.53;1.63;;;;;;;6.94;100.00;99803.41;5070604;28;20347;-83
2022/04/05 04:34:37;;;;;;;5.50;1.52;;;;;;;7.07;100.00;99796.00;5070290;28;20127;-83
2022/04/05 04:37:04;;;;;;;7.97;1.73;;;;;;;6.54;100.00;99745.91;5062105;28;20044;-83
2022/04/05 04:39:32;;;;;;;6.10;1.60;;;;;;;6.95;100.00;99802.50;5069965;28;20045;-83
2022/04/05 04:41:59;;;;;;;10.27;2.30;;;;;;;6.75;100.00;99788.50;5081344;28;20132;-83
2022/04/05 04:44:27;;;;;;;3.65;1.40;;;;;;;7.04;100.00;99779.56;5064973;28;20512;-83
2022/04/05 04:46:54;;;;;;;6.32;1.63;;;;;;;6.84;100.00;99771.69;5068235;28;20491;-84
2022/04/05 04:49:21;;;;;;;4.75;1.63;;;;;;;6.36;100.00;99752.63;5060328;28;20132;-83
2022/04/05 04:51:47;;;;;;;4.85;1.70;;;;;;;6.60;100.00;99786.44;5060611;28;20502;-83
2022/04/05 04:54:14;;;;;;;5.63;1.67;;;;;;;6.34;100.00;99740.56;5059543;28;20076;-83
2022/04/05 04:56:41;;;;;;;4.05;1.27;;;;;;;6.39;100.00;99778.53;5075503;28;20062;-83
2022/04/05 04:59:08;;;;;;;7.18;1.73;;;;;;;6.21;100.00;99760.97;5066250;28;20055;-83
2022/04/05 05:01:34;;;;;;;9.85;2.70;;;;;;;6.23;100.00;99759.16;5067089;28;20122;-84
2022/04/05 05:04:01;;;;;;;6.22;1.58;;;;;;;6.45;100.00;99760.09;5060033;28;20049;-83
2022/04/05 05:06:28;;;;;;;11.82;2.25;;;;;;;6.02;100.00;99761.63;5066864;28;20049;-84
2022/04/05 05:08:55;;;;;;;12.43;3.15;;;;;;;5.69;100.00;99742.78;5061758;28;20141;-83
2022/04/05 05:11:22;;;;;;;7.43;2.10;;;;;;;6.03;100.00;99758.09;5062600;28;20056;-83
2022/04/05 05:13:49;;;;;;;9.15;2.33;;;;;;;6.29;100.00;99747.72;5060365;28;20045;-83
2022/04/05 05:16:16;;;;;;;6.00;1.63;;;;;;;6.53;100.00;99762.41;5069193;28;20053;-84
2022/04/05 05:18:43;;;;;;;8.27;1.75;;;;;;;6.24;100.00;99722.72;5056706;28;20055;-84
2022/04/05 05:21:10;;;;;;;3.72;1.55;;;;;;;6.60;100.00;99763.88;5061454;28;20045;-83
2022/04/05 05:23:37;;;;;;;5.28;2.00;;;;;;;6.04;100.00;99713.03;5067140;28;20054;-83
2022/04/05 05:26:04;;;;;;;3.97;1.50;;;;;;;6.53;100.00;99744.19;5065618;28;20075;-83
2022/04/05 05:28:31;;;;;;;4.88;1.70;;;;;;;6.29;100.00;99734.72;5070017;28;20054;-83
2022/04/05 05:30:57;;;;;;;5.75;1.80;;;;;;;6.50;100.00;99775.53;5063327;28;20496;-84
2022/04/05 05:33:24;;;;;;;6.85;2.10;;;;;;;6.60;100.00;99768.25;5067026;28;20088;-83
2022/04/05 05:35:52;;;;;;;7.53;2.17;;;;;;;6.44;100.00;99758.38;5065501;28;20512;-83
2022/04/05 05:38:22;;;;;;;7.05;2.00;;;;;;;6.21;100.00;99725.41;5066022;28;20052;-84
2022/04/05 05:40:49;;;;;;;7.80;2.05;;;;;;;6.23;100.00;99735.75;5063749;28;20059;-84
2022/04/05 05:43:16;;;;;;;5.30;1.90;;;;;;;6.01;100.00;99746.06;5065355;28;20661;-84
2022/04/05 05:45:43;;;;;;;6.03;1.70;;;;;;;6.42;100.00;99748.94;5065277;28;20053;-84
2022/04/05 05:48:10;;;;;;;7.55;1.92;;;;;;;6.50;100.00;99746.06;5065973;28;20049;-85
2022/04/05 05:50:36;;;;;;;6.75;2.10;;;;;;;5.98;100.00;99762.59;5070442;28;20044;-85
2022/04/05 05:53:04;;;;;;;8.18;2.45;;;;;;;6.21;100.00;99746.22;5058799;28;20688;-84
2022/04/05 05:55:32;;;;;;;10.68;2.72;;;;;;;5.55;100.00;99763.16;5064289;28;20044;-84
2022/04/05 05:58:00;;;;;;;10.07;2.03;;;;;;;5.92;100.00;99744.59;5068169;28;20048;-84
2022/04/05 06:00:26;;;;;;;6.70;1.80;;;;;;;5.59;100.00;99718.84;5063959;28;20075;-84
2022/04/05 06:03:01;;;;;;;8.82;2.30;;;;;;;5.96;100.00;99769.59;5064915;28;20079;-84
2022/04/05 06:05:29;;;;;;;7.10;2.35;;;;;;;6.12;100.00;99758.69;5072724;28;20044;-84
2022/04/05 06:07:56;;;;;;;5.95;2.03;;;;;;;5.60;100.00;99753.47;5069153;28;20048;-85
2022/04/05 06:10:25;;;;;;;5.43;2.00;;;;;;;4.95;100.00;99678.50;5076076;28;20045;-84
2022/04/05 06:12:52;;;;;;;8.60;2.60;;;;;;;5.08;100.00;99763.75;5072896;28;20058;-84
2022/04/05 06:15:19;;;;;;;8.75;2.10;;;;;;;5.54;100.00;99753.66;5068884;28;20044;-84
2022/04/05 06:17:48;;;;;;;7.55;2.65;;;;;;;4.97;100.00;99747.66;5072141;28;20048;-83
2022/04/05 06:20:17;;;;;;;7.32;2.00;;;;;;;5.11;100.00;99742.91;5074264;28;20052;-82
2022/04/05 06:22:44;;;;;;;5.25;1.77;;;;;;;4.82;100.00;99752.44;5070839;28;20470;-83
2022/04/05 06:25:13;;;;;;;4.38;1.83;;;;;;;5.10;100.00;99741.22;5072747;28;20128;-83
2022/04/05 06:27:40;;;;;;;6.32;2.00;;;;;;;5.09;100.00;99739.50;5072653;28;20048;-84
2022/04/05 06:30:08;;;;;;;6.88;3.20;;;;;;;5.03;100.00;99747.47;5072714;28;20055;-84
2022/04/05 06:32:35;;;;;;;10.70;3.22;;;;;;;4.64;100.00;99704.56;5071784;28;20127;-84
2022/04/05 06:35:04;;;;;;;5.55;2.17;;;;;;;5.22;100.00;99746.00;5072731;28;20417;-83
2022/04/05 06:37:31;;;;;;;8.05;2.40;;;;;;;5.17;100.00;99737.53;5065158;28;20058;-83
2022/04/05 06:39:58;;;;;;;8.50;2.63;;;;;;;5.13;100.00;99739.38;5074017;28;20059;-84
2022/04/05 06:42:25;;;;;;;7.00;2.45;;;;;;;5.17;100.00;99723.69;5071537;28;20051;-84
2022/04/05 06:44:55;;;;;;;5.95;1.98;;;;;;;5.26;100.00;99724.28;5072454;28;20052;-84
2022/04/05 06:47:22;;;;;;;6.90;2.58;;;;;;;5.14;100.00;99707.34;5073395;28;20044;-83
2022/04/05 06:49:49;;;;;;;6.93;2.58;;;;;;;5.29;100.00;99728.50;5073830;28;20051;-83
2022/04/05 06:52:16;;;;;;;6.30;2.17;;;;;;;5.47;100.00;99707.16;5072013;28;20048;-83
2022/04/05 06:54:43;;;;;;;13.00;2.60;;;;;;;5.56;100.00;99726.78;5066859;28;20482;-84
2022/04/05 06:57:10;;;;;;;6.22;2.15;;;;;;;5.62;100.00;99728.31;5068701;28;20136;-84
2022/04/05 06:59:41;;;;;;;7.57;2.45;;;;;;;5.67;100.00;99731.59;5067429;28;20048;-83
2022/04/05 07:02:10;;;;;;;6.47;2.45;;;;;;;5.01;100.00;99659.34;5073236;28;20052;-83
2022/04/05 07:04:37;;;;;;;7.80;2.17;;;;;;;5.44;100.00;99711.59;5073013;28;20474;-83
2022/04/05 07:07:04;;;;;;;5.88;2.25;;;;;;;4.85;100.00;99677.13;5072834;28;20456;-84
2022/04/05 07:09:30;;;;;;;6.07;2.38;;;;;;;5.07;100.00;99679.03;5073494;28;20402;-84
2022/04/05 07:12:02;;;;;;;7.38;2.30;;;;;;;5.24;100.00;99717.41;5072685;28;20076;-82
2022/04/05 07:14:28;;;;;;;7.57;2.80;;;;;;;5.21;100.00;99696.78;5071126;28;20040;-84
2022/04/05 07:16:55;;;;;;;7.50;2.92;;;;;;;5.17;100.00;99685.66;5073075;28;20048;-83
2022/04/05 07:19:22;;;;;;;7.53;2.75;;;;;;;4.98;100.00;99705.28;5071678;28;20048;-82
2022/04/05 07:21:49;;;;;;;10.05;3.13;;;;;;;5.05;100.00;99693.81;5071469;28;20052;-83
2022/04/05 07:24:18;;;;;;;8.55;3.13;;;;;;;5.00;100.00;99678.38;5070863;28;20071;-83
2022/04/05 07:26:46;;;;;;;7.82;2.40;;;;;;;5.47;100.00;99698.50;5072827;28;20102;-84
2022/04/05 07:29:13;;;;;;;10.68;3.38;;;;;;;4.72;100.00;99691.34;5073355;28;20402;-83
2022/04/05 07:31:39;;;;;;;8.52;3.25;;;;;;;4.60;100.00;99710.72;5073449;28;20399;-83
2022/04/05 07:34:06;;;;;;;8.20;3.00;;;;;;;4.95;100.00;99698.44;5070405;28;20098;-83
2022/04/05 07:36:33;;;;;;;8.45;3.17;;;;;;;4.85;100.00;99699.59;5067743;28;20139;-82
2022/04/05 07:39:00;;;;;;;11.52;3.72;;;;;;;4.74;100.00;99707.72;5052821;28;20057;-82
2022/04/05 07:41:26;;;;;;;9.98;3.63;;;;;;;4.72;100.00;99709.50;5051921;28;20049;-82
2022/04/05 07:43:53;;;;;;;6.90;2.38;;;;;;;4.95;100.00;99699.25;5065326;28;20044;-82
2022/04/05 07:46:20;;;;;;;8.52;3.13;;;;;;;4.77;100.00;99699.84;5060542;28;20044;-82
2022/04/05 07:48:47;;;;;;;9.25;3.47;;;;;;;4.93;100.00;99702.81;5064402;28;20051;-82
2022/04/05 07:51:16;;;;;;;9.48;3.20;;;;;;;4.55;100.00;99684.06;5066569;28;20063;-82
2022/04/05 07:53:43;;;;;;;11.63;3.42;;;;;;;4.38;100.00;99649.13;5070111;28;20048;-82
2022/04/05 07:56:12;;;;;;;6.97;2.90;;;;;;;4.63;100.00;99681.25;5064735;28;20052;-81
2022/04/05 07:58:42;;;;;;;7.70;2.72;;;;;;;4.61;100.00;99672.69;5073189;28;20048;-82
2022/04/05 08:01:10;;;;;;;9.15;2.83;;;;;;;4.54;100.00;99703.13;5072516;28;20052;-81
2022/04/05 08:03:38;;;;;;;5.50;1.85;;;;;;;4.82;100.00;99702.31;5064975;28;20052;-81
2022/04/05 08:06:05;;;;;;;7.93;2.67;;;;;;;4.69;100.00;99707.00;5064898;28;20079;-81
2022/04/05 08:08:33;;;;;;;5.93;2.25;;;;;;;4.26;100.00;99690.94;5069719;28;20513;-81
2022/04/05 08:11:19;;;;;;;5.43;2.08;;;;;;;4.44;100.00;99689.56;5072009;28;20059;-81
2022/04/05 08:13:47;;;;;;;5.13;1.65;;;;;;;4.92;100.00;99678.63;5069679;28;20059;-82
2022/04/05 08:16:13;;;;;;;6.93;2.58;;;;;;;4.65;100.00;99663.91;5062170;28;20059;-82
2022/04/05 08:18:40;;;;;;;6.93;2.30;;;;;;;4.73;100.00;99687.88;5066683;28;20079;-82
2022/04/05 08:21:07;;;;;;;13.02;3.28;;;;;;;4.82;100.00;99684.16;5071449;28;20093;-82
2022/04/05 08:23:34;;;;;;;7.60;3.03;;;;;;;5.04;100.00;99686.91;5075653;28;20463;-82
2022/04/05 08:26:01;;;;;;;8.57;3.20;;;;;;;4.75;100.00;99683.47;5066926;28;20044;-81
2022/04/05 08:28:28;;;;;;;9.20;3.22;;;;;;;4.78;100.00;99692.91;5067523;28;20072;-81
2022/04/05 08:30:54;;;;;;;7.40;2.63;;;;;;;4.54;100.00;99696.19;5072007;28;20688;-82
2022/04/05 08:33:21;;;;;;;18.17;4.28;;;;;;;4.65;100.00;99693.28;5070129;28;20044;-81
2022/04/05 08:35:49;;;;;;;10.65;3.92;;;;;;;4.50;100.00;99692.00;5070652;28;20044;-82
2022/04/05 08:38:16;;;;;;;10.65;3.35;;;;;;;4.63;100.00;99682.09;5070397;28;20056;-81
2022/04/05 08:40:42;;;;;;;9.18;3.33;;;;;;;4.71;100.00;99664.59;5067309;28;20045;-81
2022/04/05 08:43:09;;;;;;;10.18;3.30;;;;;;;4.97;100.00;99662.91;5060825;28;20048;-81
2022/04/05 08:45:36;;;;;;;10.25;4.72;;;;;;;4.88;100.00;99669.22;5064043;28;20041;-81
2022/04/05 08:48:09;;;;;;;8.13;3.20;;;;;;;4.68;100.00;99654.28;5060896;28;20102;-81
2022/04/05 08:50:36;;;;;;;11.32;3.33;;;;;;;4.79;100.00;99655.72;5068773;28;20127;-81
2022/04/05 08:53:04;;;;;;;6.20;2.33;;;;;;;4.89;100.00;99651.94;5065928;28;20643;-81
2022/04/05 08:55:35;;;;;;;6.47;2.40;;;;;;;4.95;100.00;99662.94;5065451;28;20056;-81
2022/04/05 08:58:04;;;;;;;5.93;2.45;;;;;;;5.25;100.00;99673.25;5063867;28;20064;-81
2022/04/05 09:00:31;;;;;;;9.90;3.80;;;;;;;4.93;100.00;99659.56;5052495;28;20049;-81
2022/04/05 09:03:00;;;;;;;6.28;2.60;;;;;;;5.13;100.00;99673.63;5058678;28;20103;-80
2022/04/05 09:05:48;;;;;;;6.40;2.53;;;;;;;5.09;100.00;99662.50;5063340;28;20124;-80
2022/04/05 09:08:29;;;;;;;6.53;2.33;;;;;;;5.17;100.00;99662.28;5072842;28;20051;-81
2022/04/05 09:11:12;;;;;;;4.82;2.03;;;;;;;5.18;100.00;99668.31;5063941;28;20053;-81
2022/04/05 09:13:40;;;;;;;6.28;2.15;;;;;;;5.23;100.00;99674.22;5064564;28;20394;-81
2022/04/05 09:16:08;;;;;;;7.28;2.92;;;;;;;5.04;100.00;99660.97;5063195;28;20044;-81
2022/04/05 09:18:36;;;;;;;4.20;1.92;;;;;;;5.19;100.00;99686.44;5064808;28;20049;-81
2022/04/05 09:21:05;;;;;;;6.70;2.05;;;;;;;5.27;100.00;99673.19;5064966;28;20055;-82
2022/04/05 09:23:35;;;;;;;5.07;1.90;;;;;;;5.18;100.00;99655.34;5059669;28;20055;-82
2022/04/05 09:26:40;;;;;;;6.30;2.65;;;;;;;5.15;100.00;99684.81;5057406;28;20044;-81
2022/04/05 09:29:07;;;;;;;6.00;2.60;;;;;;;4.53;100.00;99642.66;5055832;28;20048;-81
2022/04/05 09:31:43;;;;;;;5.10;2.13;;;;;;;4.43;100.00;99628.28;5065472;28;20052;-81
2022/04/05 09:34:17;;;;;;;3.95;1.70;;;;;;;4.95;100.00;99672.47;5060574;28;20057;-81
2022/04/05 09:36:50;;;;;;;4.13;1.70;;;;;;;4.90;100.00;99683.00;5060311;28;20136;-82
2022/04/05 09:39:22;;;;;;;5.55;2.05;;;;;;;4.57;100.00;99648.59;5059769;28;20049;-82
2022/04/05 09:41:55;;;;;;;6.10;2.10;;;;;;;4.84;100.00;99687.53;5060923;28;20044;-81
2022/04/05 09:44:31;;;;;;;5.20;1.80;;;;;;;4.85;100.00;99673.66;5068863;28;20053;-81
2022/04/05 09:47:05;;;;;;;4.15;1.98;;;;;;;4.96;100.00;99671.59;5070224;28;20063;-80
2022/04/05 09:49:34;;;;;;;9.18;3.60;;;;;;;4.97;100.00;99657.72;5068637;28;20394;-81
2022/04/05 09:52:02;;;;;;;4.75;2.15;;;;;;;5.00;100.00;99636.88;5059849;28;20048;-80
2022/04/05 09:54:31;;;;;;;5.30;2.03;;;;;;;5.12;100.00;99656.41;5065276;28;20055;-81
2022/04/05 09:57:08;;;;;;;10.15;3.28;;;;;;;4.69;100.00;99609.34;5058810;28;20060;-81
2022/04/05 09:59:38;;;;;;;5.97;2.45;;;;;;;5.19;100.00;99655.28;5069668;28;20464;-81
2022/04/05 10:02:16;;;;;;;6.03;2.20;;;;;;;5.21;100.00;99653.50;5070349;28;20055;-82
2022/04/05 10:05:06;;;;;;;7.82;2.88;;;;;;;5.42;100.00;99664.03;5065735;28;20529;-82
2022/04/05 10:07:34;;;;;;;7.90;3.30;;;;;;;4.82;100.00;99635.72;5054069;28;20234;-83
2022/04/05 10:10:06;;;;;;;6.43;2.75;;;;;;;5.05;100.00;99645.34;5054868;28;20075;-82
2022/04/05 10:12:32;;;;;;;7.90;2.90;;;;;;;4.94;100.00;99630.13;5063519;28;20490;-82
2022/04/05 10:15:00;;;;;;;10.38;3.70;;;;;;;4.97;100.00;99630.94;5073707;28;20102;-82
2022/04/05 10:17:28;;;;;;;7.63;3.13;;;;;;;5.21;100.00;99643.13;5073120;28;20135;-82
2022/04/05 10:19:57;;;;;;;8.57;3.40;;;;;;;5.07;100.00;99653.09;5073116;28;20084;-82
2022/04/05 10:22:25;;;;;;;9.95;2.53;;;;;;;5.15;100.00;99630.31;5072659;28;20055;-82
2022/04/05 10:24:53;;;;;;;9.25;3.47;;;;;;;5.24;100.00;99650.81;5074590;28;20041;-82
2022/04/05 10:27:22;;;;;;;8.70;3.00;;;;;;;5.23;100.00;99630.09;5073715;28;20421;-82
2022/04/05 10:30:12;;;;;;;9.15;2.60;;;;;;;5.36;100.00;99639.16;5073352;28;20555;-83
2022/04/05 10:32:55;;;;;;;6.78;2.40;;;;;;;5.53;100.00;99624.75;5072398;28;20048;-82
2022/04/05 10:35:25;;;;;;;15.40;6.90;;;;;;;5.01;100.00;99591.00;5073310;28;20051;-83
2022/04/05 10:38:10;;;;;;;15.30;7.38;;;;;;;4.84;100.00;99601.97;5057892;28;20491;-82
2022/04/05 10:40:36;;;;;;;16.92;8.25;;;;;;;4.77;100.00;99577.13;5056169;28;20410;-82
2022/04/05 10:43:16;;;;;;;9.30;4.00;;;;;;;5.61;100.00;99630.53;5078059;28;20505;-82
2022/04/05 10:45:43;;;;;;;10.13;4.35;;;;;;;5.28;100.00;99607.44;5053021;28;20559;-82
2022/04/05 10:48:15;;;;;;;10.52;3.80;;;;;;;5.48;100.00;99622.31;5053958;28;20483;-81
2022/04/05 10:51:00;;;;;;;9.40;2.88;;;;;;;6.02;100.00;99613.50;5057766;28;20049;-81
2022/04/05 10:53:35;;;;;;;14.75;6.78;;;;;;;5.99;100.00;99626.59;5071628;28;20044;-81
2022/04/05 10:56:06;;;;;;;12.63;5.00;;;;;;;5.99;100.00;99629.19;5073668;28;20058;-81
2022/04/05 10:58:41;;;;;;;11.88;4.03;;;;;;;5.77;100.00;99625.63;5072440;28;20048;-81
2022/04/05 11:01:18;;;;;;;9.90;4.82;;;;;;;5.62;100.00;99619.25;5072577;28;20066;-82
2022/04/05 11:04:21;;;;;;;8.50;3.08;;;;;;;5.97;100.00;99617.19;5073048;28;20051;-82
2022/04/05 11:07:06;;;;;;;7.65;3.05;;;;;;;6.07;100.00;99608.97;5064952;28;20467;-81
2022/04/05 11:09:39;;;;;;;7.18;2.83;;;;;;;5.73;100.00;99604.13;5073409;28;20066;-81
2022/04/05 11:12:20;;;;;;;8.10;3.30;;;;;;;6.10;100.00;99595.00;5073168;28;20071;-81
2022/04/05 11:14:51;;;;;;;8.13;3.70;;;;;;;5.65;100.00;99603.56;5052477;28;20049;-81
2022/04/05 11:17:21;;;;;;;6.93;2.80;;;;;;;5.82;100.00;99575.22;5069358;28;20048;-81
2022/04/05 11:19:50;;;;;;;8.50;3.42;;;;;;;5.78;100.00;99589.22;5052671;28;20092;-81
2022/04/05 11:22:19;;;;;;;11.43;5.38;;;;;;;5.27;100.00;99595.34;5066468;28;20131;-81
2022/04/05 11:24:53;;;;;;;9.90;4.38;;;;;;;5.93;100.00;99577.41;5071808;28;20095;-81
2022/04/05 11:27:29;;;;;;;10.82;4.85;;;;;;;5.84;100.00;99572.56;5070593;28;20127;-82
2022/04/05 11:30:26;;;;;;;9.40;4.40;;;;;;;5.84;100.00;99568.22;5072138;28;20135;-82
2022/04/05 11:33:15;;;;;;;9.15;3.42;;;;;;;6.22;100.00;99565.97;5058904;28;20098;-82
2022/04/05 11:35:51;;;;;;;10.85;5.32;;;;;;;5.74;100.00;99564.28;5072341;28;20445;-82
2022/04/05 11:38:18;;;;;;;10.93;5.20;;;;;;;5.26;100.00;99565.13;5073067;28;20467;-82
2022/04/05 11:40:54;;;;;;;10.65;5.00;;;;;;;5.28;100.00;99563.31;5073125;28;20052;-82